Lake Lincoln, Indiana
Current Conditions -  °F | °C
As of 2:15 AM on Tuesday 27 Jan 2015 (Local Time) from KHNB Reporting Station
Overcast Overcast  
Wind Chill: -1°   Ceiling: 400
Heat Index: -1°   Visibility: 3mi
Dew Point: -3°   Wind: 3mph
Humidity: 86%   Direction: 110°ESE
Pressure: 29.92"   Gusts: NA
Location:  38.1283°N, 86.9862°W
Report Text: KHNB 270815Z AUTO 11003KT 3SM OVC004 M01/M03 A2992 RMK AO1
Loading
Personal Weather Stations






























Interactive Weather Map New forecast layout! Learn more

10-Day Weather Forecast

Advertisements
Track Severe Weather on mobile